Time;durP1;ratioP1;P1;durP2;ratioP2;P2;SDS_P1;SDS_P2;PMS_P1;PMS_P2;Temp;Humidity;BMP_temperature;BMP_pressure;BME280_temperature;BME280_humidity;BME280_pressure;Samples;Min_cycle;Max_cycle;Signal;HPM_P1;HPM_P2
2022/03/31 00:00:46;;;;;;;3.63;0.70;;;5.50;99.90;;;;;;5094361;27;20050;-85
2022/03/31 00:03:14;;;;;;;2.60;0.30;;;4.50;99.90;;;;;;5111807;27;20102;-86
2022/03/31 00:05:41;;;;;;;4.35;0.73;;;4.40;99.90;;;;;;5094022;27;20082;-86
2022/03/31 00:08:15;;;;;;;1.95;0.40;;;4.40;99.90;;;;;;5094215;27;20042;-85
2022/03/31 00:10:49;;;;;;;3.83;0.52;;;4.40;99.90;;;;;;5110546;27;20525;-87
2022/03/31 00:13:18;;;;;;;1.92;0.55;;;4.40;99.90;;;;;;5093438;27;20050;-86
2022/03/31 00:15:44;;;;;;;3.38;0.68;;;5.80;99.90;;;;;;5130163;27;20041;-86
2022/03/31 00:18:11;;;;;;;6.68;0.77;;;4.30;99.90;;;;;;5111356;27;20415;-86
2022/03/31 00:20:37;;;;;;;0.82;0.30;;;4.30;99.90;;;;;;5094135;27;20047;-87
2022/03/31 00:23:05;;;;;;;3.58;0.32;;;4.30;99.90;;;;;;5110704;27;20047;-86
2022/03/31 00:25:31;;;;;;;1.80;0.20;;;4.30;99.90;;;;;;5076894;27;20179;-85
2022/03/31 00:27:57;;;;;;;3.85;0.47;;;4.30;99.90;;;;;;5076993;27;20043;-86
2022/03/31 00:30:24;;;;;;;4.57;0.82;;;4.30;99.90;;;;;;5110326;27;20050;-87
2022/03/31 00:32:49;;;;;;;0.65;0.40;;;4.30;99.90;;;;;;5111317;27;20047;-87
2022/03/31 00:35:15;;;;;;;3.67;0.40;;;4.30;99.90;;;;;;5110102;27;20410;-85
2022/03/31 00:37:43;;;;;;;1.52;0.60;;;4.30;99.90;;;;;;5094507;27;20043;-86
2022/03/31 00:40:10;;;;;;;3.70;0.50;;;4.30;99.90;;;;;;5110825;27;20457;-87
2022/03/31 00:42:41;;;;;;;3.45;0.40;;;4.30;99.90;;;;;;5093418;27;20074;-86
2022/03/31 00:45:14;;;;;;;1.58;0.28;;;4.80;99.90;;;;;;5092687;27;20047;-86
2022/03/31 00:47:40;;;;;;;;;;;5.20;99.90;;;;;;5089903;28;20052;-86
2022/03/31 00:50:07;;;;;;;1.75;0.50;;;5.60;99.90;;;;;;5090569;28;19939;-85
2022/03/31 00:52:33;;;;;;;1.10;0.63;;;4.20;99.90;;;;;;5089437;28;20243;-86
2022/03/31 00:55:00;;;;;;;2.15;0.50;;;4.20;99.90;;;;;;5090042;28;20043;-86
2022/03/31 00:57:26;;;;;;;1.65;0.40;;;4.20;99.90;;;;;;5107014;28;20156;-86
2022/03/31 00:59:51;;;;;;;1.52;0.30;;;4.20;99.90;;;;;;5106937;28;20044;-86
2022/03/31 01:02:17;;;;;;;3.58;0.57;;;4.10;99.90;;;;;;5089488;28;20410;-86
2022/03/31 01:04:43;;;;;;;5.68;0.55;;;4.10;99.90;;;;;;5106214;28;20128;-86
2022/03/31 01:07:09;;;;;;;1.35;0.40;;;4.10;99.90;;;;;;5073264;28;20126;-86
2022/03/31 01:09:35;;;;;;;3.03;0.45;;;4.10;99.90;;;;;;5107897;28;20098;-86
2022/03/31 01:12:01;;;;;;;1.35;0.40;;;4.00;99.90;;;;;;5106703;28;20035;-86
2022/03/31 01:14:28;;;;;;;3.65;0.80;;;4.00;99.90;;;;;;5106320;28;20372;-87
2022/03/31 01:16:54;;;;;;;1.48;0.52;;;4.00;99.90;;;;;;5106174;28;20440;-87
2022/03/31 01:19:19;;;;;;;3.63;1.42;;;5.30;99.90;;;;;;5106116;28;20076;-87
2022/03/31 01:21:48;;;;;;;2.17;1.17;;;4.00;99.90;;;;;;5106121;28;20043;-86
2022/03/31 01:24:14;;;;;;;1.80;1.30;;;4.50;99.90;;;;;;5057022;28;20047;-86
2022/03/31 01:26:42;;;;;;;5.45;1.58;;;3.90;99.90;;;;;;5088735;28;20082;-87
2022/03/31 01:29:09;;;;;;;4.93;1.48;;;3.90;99.90;;;;;;5106938;28;20038;-86
2022/03/31 01:31:35;;;;;;;5.95;1.58;;;3.90;99.90;;;;;;5089404;28;20048;-86
2022/03/31 01:34:01;;;;;;;3.78;1.63;;;3.90;99.90;;;;;;5088730;28;20047;-88
2022/03/31 01:36:27;;;;;;;3.45;1.60;;;3.90;99.90;;;;;;5106214;28;20047;-85
2022/03/31 01:38:55;;;;;;;2.90;1.48;;;4.20;99.90;;;;;;5105717;28;20035;-88
2022/03/31 01:41:22;;;;;;;2.83;1.77;;;3.90;99.90;;;;;;5108302;28;20046;-86
2022/03/31 01:43:48;;;;;;;4.90;1.95;;;3.90;99.90;;;;;;5107334;28;20054;-86
2022/03/31 01:46:14;;;;;;;7.90;2.10;;;3.90;99.90;;;;;;5106863;28;20499;-87
2022/03/31 01:48:40;;;;;;;3.65;1.98;;;3.90;99.90;;;;;;5088767;28;20059;-86
2022/03/31 01:51:07;;;;;;;3.25;2.03;;;3.90;99.90;;;;;;5088858;28;20035;-86
2022/03/31 01:53:35;;;;;;;3.70;2.40;;;3.80;99.90;;;;;;5105929;28;20067;-86
2022/03/31 01:56:01;;;;;;;3.22;2.00;;;3.90;99.90;;;;;;5105701;28;20099;-87
2022/03/31 01:58:27;;;;;;;5.43;1.80;;;4.30;99.90;;;;;;5107076;28;20118;-86
2022/03/31 02:00:53;;;;;;;7.25;2.30;;;4.80;99.90;;;;;;5088702;28;20043;-86
2022/03/31 02:03:19;;;;;;;3.65;2.05;;;3.80;99.90;;;;;;5106046;28;20517;-86
2022/03/31 02:05:45;;;;;;;3.35;2.15;;;3.80;99.90;;;;;;5105488;28;20047;-85
2022/03/31 02:08:11;;;;;;;4.65;2.20;;;3.80;99.90;;;;;;5089123;28;20057;-85
2022/03/31 02:10:36;;;;;;;5.78;2.85;;;3.20;99.90;;;;;;5088370;28;20114;-86
2022/03/31 02:13:03;;;;;;;5.03;2.47;;;3.80;99.90;;;;;;5089001;28;20294;-85
2022/03/31 02:15:29;;;;;;;4.15;2.58;;;3.70;99.90;;;;;;5088895;28;20461;-86
2022/03/31 02:17:55;;;;;;;5.53;2.65;;;3.70;99.90;;;;;;5106831;28;20463;-85
2022/03/31 02:20:22;;;;;;;8.05;2.45;;;3.70;99.90;;;;;;5106371;28;20044;-86
2022/03/31 02:22:48;;;;;;;5.65;2.33;;;3.70;99.90;;;;;;5105333;28;20127;-86
2022/03/31 02:25:14;;;;;;;6.78;3.28;;;4.80;99.90;;;;;;5105241;28;20134;-87
2022/03/31 02:27:39;;;;;;;7.72;3.00;;;3.70;99.90;;;;;;5105308;28;20040;-86
2022/03/31 02:30:07;;;;;;;8.65;3.47;;;3.70;99.90;;;;;;5071581;28;20416;-85
2022/03/31 02:32:33;;;;;;;5.95;3.45;;;3.80;99.90;;;;;;5088928;28;20627;-87
2022/03/31 02:34:59;;;;;;;6.80;2.88;;;3.70;99.90;;;;;;5105263;28;20043;-88
2022/03/31 02:37:25;;;;;;;7.28;3.17;;;3.80;99.90;;;;;;5107556;28;20106;-86
2022/03/31 02:39:51;;;;;;;6.72;3.05;;;3.80;99.90;;;;;;5088343;28;20043;-86
2022/03/31 02:42:17;;;;;;;3.75;3.10;;;3.80;99.90;;;;;;5087985;28;20050;-87
2022/03/31 02:44:44;;;;;;;6.53;3.88;;;3.80;99.90;;;;;;5105315;28;20065;-87
2022/03/31 02:47:10;;;;;;;6.68;3.83;;;3.90;99.90;;;;;;5105083;28;20055;-87
2022/03/31 02:49:36;;;;;;;5.90;3.80;;;3.80;99.90;;;;;;5089263;28;20122;-88
2022/03/31 02:52:03;;;;;;;6.05;3.72;;;3.80;99.90;;;;;;5071677;28;20180;-86
2022/03/31 02:57:13;;;;;;;5.65;2.90;;;3.70;99.90;;;;;;5090726;28;20056;-87
2022/03/31 02:59:39;;;;;;;4.45;2.78;;;4.50;99.90;;;;;;5088130;28;20046;-86
2022/03/31 03:02:05;;;;;;;6.43;2.78;;;4.70;99.90;;;;;;5105336;28;20060;-87
2022/03/31 03:04:31;;;;;;;4.88;2.42;;;4.90;99.90;;;;;;5105096;28;20509;-86
2022/03/31 03:06:57;;;;;;;8.77;2.40;;;4.70;99.90;;;;;;5105725;28;20050;-86
2022/03/31 03:09:23;;;;;;;4.45;2.58;;;3.60;99.90;;;;;;5107488;28;20071;-87
2022/03/31 03:11:49;;;;;;;8.18;4.78;;;3.60;99.90;;;;;;5109538;28;20035;-86
2022/03/31 03:14:15;;;;;;;8.77;5.70;;;3.60;99.90;;;;;;5058225;28;20039;-87
2022/03/31 03:16:42;;;;;;;14.55;7.45;;;3.50;99.90;;;;;;5108421;28;20044;-86
2022/03/31 03:19:07;;;;;;;7.88;6.60;;;3.20;99.90;;;;;;5091723;28;20047;-87
2022/03/31 03:21:34;;;;;;;8.02;5.40;;;3.40;99.90;;;;;;5074909;28;20036;-86
2022/03/31 03:24:01;;;;;;;4.78;3.67;;;4.80;99.90;;;;;;5092456;28;20050;-86
2022/03/31 03:26:28;;;;;;;3.40;2.85;;;3.40;99.90;;;;;;5075174;28;20443;-87
2022/03/31 03:28:54;;;;;;;2.78;1.95;;;3.30;99.90;;;;;;5109690;28;20394;-87
2022/03/31 03:31:20;;;;;;;5.25;1.65;;;3.30;99.90;;;;;;5091279;28;20042;-87
2022/03/31 03:33:46;;;;;;;2.67;1.73;;;3.20;99.90;;;;;;5092161;28;20031;-88
2022/03/31 03:36:16;;;;;;;4.47;1.55;;;3.20;99.90;;;;;;5074883;28;20511;-86
2022/03/31 03:38:42;;;;;;;3.78;1.50;;;3.20;99.90;;;;;;5108254;28;20123;-88
2022/03/31 03:41:11;;;;;;;2.28;1.35;;;3.10;99.90;;;;;;5108862;28;20094;-88
2022/03/31 03:43:37;;;;;;;2.13;1.48;;;3.10;99.90;;;;;;5091096;28;20044;-89
2022/03/31 03:46:03;;;;;;;1.60;1.33;;;3.10;99.90;;;;;;5060650;27;20078;-87
2022/03/31 03:48:29;;;;;;;2.13;1.33;;;3.10;99.90;;;;;;5111435;27;20555;-89
2022/03/31 03:50:55;;;;;;;2.83;2.03;;;3.00;99.90;;;;;;5094653;27;20043;-88
2022/03/31 03:53:21;;;;;;;3.03;1.95;;;3.00;99.90;;;;;;5111526;27;20050;-88
2022/03/31 03:55:47;;;;;;;3.17;2.80;;;3.00;99.90;;;;;;5094592;27;20515;-87
2022/03/31 03:58:13;;;;;;;4.68;2.53;;;3.80;99.90;;;;;;5111891;27;20046;-87
2022/03/31 04:00:39;;;;;;;3.58;1.90;;;3.00;99.90;;;;;;5110438;27;20414;-87
2022/03/31 04:03:05;;;;;;;3.22;2.38;;;3.00;99.90;;;;;;5112025;27;20038;-88
2022/03/31 04:05:31;;;;;;;3.40;2.08;;;3.00;99.90;;;;;;5077142;27;20040;-88
2022/03/31 04:07:57;;;;;;;2.00;1.73;;;4.20;99.90;;;;;;5129563;27;20551;-87
2022/03/31 04:10:23;;;;;;;2.58;1.52;;;3.00;99.90;;;;;;5129330;27;20031;-88
2022/03/31 04:12:49;;;;;;;3.35;1.98;;;4.40;99.90;;;;;;5110627;27;20418;-88
2022/03/31 04:15:15;;;;;;;5.40;2.17;;;3.90;99.90;;;;;;5094035;27;20069;-88
2022/03/31 04:17:44;;;;;;;3.25;1.55;;;2.90;99.90;;;;;;5110047;27;20121;-86
2022/03/31 04:20:11;;;;;;;2.67;1.25;;;4.00;99.90;;;;;;5093396;27;20048;-89
2022/03/31 04:22:37;;;;;;;2.03;1.38;;;2.80;99.90;;;;;;5110826;27;20453;-88
2022/03/31 04:25:08;;;;;;;2.72;1.55;;;3.50;99.90;;;;;;5110718;27;20054;-90
2022/03/31 04:27:35;;;;;;;2.95;1.52;;;2.80;99.90;;;;;;5093561;27;20474;-90
2022/03/31 04:30:05;;;;;;;2.92;1.60;;;2.70;99.90;;;;;;5110652;27;20077;-87
2022/03/31 04:32:31;;;;;;;1.85;1.50;;;2.70;99.90;;;;;;5095002;27;20031;-88
2022/03/31 04:34:56;;;;;;;4.30;1.55;;;4.00;99.90;;;;;;5093535;27;20202;-87
2022/03/31 04:37:22;;;;;;;4.07;1.48;;;2.70;99.90;;;;;;5094291;27;20043;-87
2022/03/31 04:39:48;;;;;;;3.95;1.60;;;2.60;99.90;;;;;;5129348;27;20047;-89
2022/03/31 04:42:14;;;;;;;1.90;1.35;;;2.60;99.90;;;;;;5060513;27;20089;-88
2022/03/31 04:44:40;;;;;;;3.40;1.80;;;2.60;99.90;;;;;;5093808;27;20054;-89
2022/03/31 04:47:07;;;;;;;3.25;1.67;;;2.60;99.90;;;;;;5060202;27;20043;-89
2022/03/31 04:49:34;;;;;;;3.75;1.70;;;2.60;99.90;;;;;;5130116;27;20035;-89
2022/03/31 04:52:00;;;;;;;3.58;1.67;;;3.50;99.90;;;;;;5093902;27;20070;-90
2022/03/31 04:54:26;;;;;;;3.42;1.65;;;2.70;99.90;;;;;;5094544;27;20083;-89
2022/03/31 04:56:52;;;;;;;3.72;1.75;;;2.70;99.90;;;;;;5110608;27;20070;-87
2022/03/31 04:59:17;;;;;;;6.93;2.03;;;2.70;99.90;;;;;;5110343;27;20051;-88
2022/03/31 05:01:43;;;;;;;5.25;2.20;;;2.80;99.90;;;;;;5076370;27;20463;-88
2022/03/31 05:04:11;;;;;;;3.58;1.80;;;2.80;99.90;;;;;;5110139;27;20043;-89
2022/03/31 05:06:37;;;;;;;2.78;1.95;;;3.30;99.90;;;;;;5061586;27;20371;-89
2022/03/31 05:09:03;;;;;;;4.35;2.33;;;3.80;99.90;;;;;;5092338;27;20050;-89
2022/03/31 05:11:29;;;;;;;2.55;1.88;;;2.90;99.90;;;;;;5076939;27;20116;-87
2022/03/31 05:13:55;;;;;;;4.10;2.00;;;4.40;99.90;;;;;;5109983;27;20083;-87
2022/03/31 05:16:20;;;;;;;2.78;1.50;;;2.90;99.90;;;;;;5076338;27;20039;-86
2022/03/31 05:18:47;;;;;;;2.75;2.15;;;4.30;99.90;;;;;;5109210;27;20242;-86
2022/03/31 05:21:14;;;;;;;2.50;2.28;;;4.20;99.90;;;;;;5076298;27;20090;-86
2022/03/31 05:23:40;;;;;;;2.40;2.20;;;2.90;99.90;;;;;;5092628;27;20043;-87
2022/03/31 05:26:06;;;;;;;3.20;2.25;;;3.00;99.90;;;;;;5108840;27;20043;-86
2022/03/31 05:28:32;;;;;;;2.70;2.45;;;4.30;99.90;;;;;;5093114;27;20039;-85
2022/03/31 05:30:57;;;;;;;3.30;2.50;;;3.80;99.90;;;;;;5091991;27;20127;-86
2022/03/31 05:33:23;;;;;;;3.00;2.65;;;3.00;99.90;;;;;;5092657;27;20398;-89
2022/03/31 05:35:49;;;;;;;2.90;2.35;;;3.00;99.90;;;;;;5092085;27;20379;-88
2022/03/31 05:38:15;;;;;;;5.53;2.47;;;3.00;99.90;;;;;;5127893;27;20039;-87
2022/03/31 05:40:41;;;;;;;3.60;2.75;;;3.00;99.90;;;;;;5110144;27;20075;-85
2022/03/31 05:43:07;;;;;;;3.25;2.90;;;3.00;99.90;;;;;;5109155;27;20134;-85
2022/03/31 05:45:32;;;;;;;3.92;2.55;;;3.00;99.90;;;;;;5110689;27;20062;-85
2022/03/31 05:47:58;;;;;;;3.75;3.17;;;3.00;99.90;;;;;;5091784;27;20543;-84
2022/03/31 05:50:24;;;;;;;4.55;2.80;;;4.00;99.90;;;;;;5128016;27;20043;-85
2022/03/31 05:52:50;;;;;;;3.70;3.05;;;3.00;99.90;;;;;;5092140;27;20391;-87
2022/03/31 05:55:18;;;;;;;4.50;3.35;;;3.00;99.90;;;;;;5108938;27;20039;-84
2022/03/31 05:57:45;;;;;;;3.90;3.50;;;4.20;99.90;;;;;;5128531;27;20108;-85
2022/03/31 06:00:14;;;;;;;4.85;3.35;;;3.00;99.90;;;;;;5109175;27;20039;-87
2022/03/31 06:02:40;;;;;;;4.20;3.30;;;3.00;99.90;;;;;;5109547;27;20138;-84
2022/03/31 06:05:07;;;;;;;3.85;3.45;;;3.00;99.90;;;;;;5091952;28;20047;-84
2022/03/31 06:07:33;;;;;;;4.38;3.47;;;3.00;99.90;;;;;;5092470;27;20051;-85
2022/03/31 06:09:59;;;;;;;3.90;3.30;;;3.00;99.90;;;;;;5109144;27;20039;-84
2022/03/31 06:12:25;;;;;;;4.30;3.88;;;3.80;99.90;;;;;;5077185;27;20448;-85
2022/03/31 06:14:51;;;;;;;4.35;3.58;;;3.10;99.90;;;;;;5092228;28;20043;-84
2022/03/31 06:17:16;;;;;;;3.97;3.55;;;3.00;99.90;;;;;;5108755;27;20092;-84
2022/03/31 06:19:43;;;;;;;4.18;3.67;;;3.00;99.90;;;;;;5128577;28;20043;-84
2022/03/31 06:22:08;;;;;;;5.80;4.35;;;3.00;99.90;;;;;;5127667;28;20390;-84
2022/03/31 06:24:35;;;;;;;6.47;4.50;;;4.50;99.90;;;;;;5109668;28;20479;-84
2022/03/31 06:27:02;;;;;;;12.25;4.25;;;3.10;99.90;;;;;;5127238;28;20060;-84
2022/03/31 06:29:29;;;;;;;15.35;5.05;;;3.00;99.90;;;;;;5127549;28;20368;-84
2022/03/31 06:31:55;;;;;;;5.85;4.00;;;3.00;99.90;;;;;;5075802;28;20048;-84
2022/03/31 06:34:22;;;;;;;6.05;4.53;;;3.10;99.90;;;;;;5127319;28;20072;-84
2022/03/31 06:36:50;;;;;;;6.60;4.45;;;3.00;99.90;;;;;;5092830;28;20047;-84
2022/03/31 06:39:17;;;;;;;5.72;4.07;;;3.00;99.90;;;;;;5092222;28;20049;-84
2022/03/31 06:41:43;;;;;;;6.72;4.70;;;3.10;99.90;;;;;;5127844;28;20097;-85
2022/03/31 06:44:12;;;;;;;5.53;4.45;;;4.50;99.90;;;;;;5129661;27;20039;-84
2022/03/31 06:46:42;;;;;;;12.35;4.60;;;4.00;99.90;;;;;;5113051;27;20051;-83
2022/03/31 06:49:09;;;;;;;7.40;4.43;;;3.10;99.90;;;;;;5131643;27;20039;-81
2022/03/31 06:51:35;;;;;;;12.88;4.55;;;3.10;99.90;;;;;;5131521;27;20639;-80
2022/03/31 06:54:02;;;;;;;14.93;5.13;;;4.50;99.90;;;;;;5113815;27;20130;-81
2022/03/31 06:56:29;;;;;;;16.35;5.18;;;3.20;99.90;;;;;;5131260;27;20043;-81
2022/03/31 06:58:56;;;;;;;11.48;4.90;;;3.20;99.90;;;;;;5131995;27;20039;-81
2022/03/31 07:01:22;;;;;;;6.55;4.07;;;3.20;99.90;;;;;;5131780;27;20054;-81
2022/03/31 07:03:48;;;;;;;4.47;4.03;;;3.20;99.90;;;;;;5131274;27;20501;-81
2022/03/31 07:06:14;;;;;;;5.68;5.07;;;3.10;99.90;;;;;;5131936;27;20082;-81
2022/03/31 07:08:40;;;;;;;8.50;5.10;;;3.10;99.90;;;;;;5095499;27;20558;-81
2022/03/31 07:11:07;;;;;;;8.93;4.28;;;4.20;99.90;;;;;;5113613;27;20036;-81
2022/03/31 07:13:33;;;;;;;6.45;4.95;;;3.10;99.90;;;;;;5130792;27;20044;-81
2022/03/31 07:15:59;;;;;;;5.30;4.30;;;3.20;99.90;;;;;;5132130;27;20043;-81
2022/03/31 07:18:24;;;;;;;10.65;4.78;;;3.20;99.90;;;;;;5112789;27;20046;-81
2022/03/31 07:20:50;;;;;;;14.32;5.35;;;3.20;99.90;;;;;;5096017;27;20501;-81
2022/03/31 07:23:18;;;;;;;9.55;4.50;;;3.20;99.90;;;;;;5112716;27;20050;-81
2022/03/31 07:25:44;;;;;;;8.43;4.50;;;3.20;99.90;;;;;;5095430;27;20047;-81
2022/03/31 07:28:10;;;;;;;5.30;4.30;;;3.20;99.90;;;;;;5096447;27;20047;-82
2022/03/31 07:30:36;;;;;;;7.03;5.03;;;3.20;99.90;;;;;;5112259;27;20096;-82
2022/03/31 07:33:04;;;;;;;11.77;4.78;;;3.30;99.90;;;;;;5131467;27;20040;-82
2022/03/31 07:35:32;;;;;;;13.07;5.00;;;3.30;99.90;;;;;;5112609;27;20084;-82
2022/03/31 07:37:59;;;;;;;9.77;4.43;;;3.30;99.90;;;;;;5112646;27;20118;-82
2022/03/31 07:40:26;;;;;;;5.65;4.57;;;3.40;99.90;;;;;;5095948;27;20043;-83
2022/03/31 07:42:53;;;;;;;4.93;4.32;;;3.40;99.90;;;;;;5130603;27;20442;-82
2022/03/31 07:45:20;;;;;;;7.85;5.35;;;3.40;99.90;;;;;;5112658;27;20051;-81
2022/03/31 07:47:45;;;;;;;7.20;4.28;;;3.40;99.90;;;;;;5130105;27;20126;-82
2022/03/31 07:50:13;;;;;;;5.30;4.35;;;3.40;99.90;;;;;;5130954;27;20078;-82
2022/03/31 07:52:40;;;;;;;7.07;4.78;;;3.40;99.90;;;;;;5094644;27;20054;-81
2022/03/31 07:55:09;;;;;;;8.57;4.53;;;3.40;99.90;;;;;;5110967;27;20073;-82
2022/03/31 07:57:35;;;;;;;5.03;4.13;;;3.40;99.90;;;;;;5112543;27;20586;-82
2022/03/31 08:00:03;;;;;;;5.60;4.35;;;3.30;99.90;;;;;;5130254;27;20043;-82
2022/03/31 08:02:29;;;;;;;5.07;4.20;;;3.30;99.90;;;;;;5131307;27;20439;-81
2022/03/31 08:04:54;;;;;;;6.65;5.03;;;3.40;99.90;;;;;;5129921;27;20043;-81
2022/03/31 08:07:21;;;;;;;6.55;5.00;;;4.00;99.90;;;;;;5130987;27;20063;-81
2022/03/31 08:09:46;;;;;;;5.53;4.47;;;3.20;99.90;;;;;;5129880;27;20115;-81
2022/03/31 08:12:13;;;;;;;8.63;5.60;;;3.20;99.90;;;;;;5130569;27;20125;-81
2022/03/31 08:14:39;;;;;;;6.15;5.00;;;3.20;99.90;;;;;;5130493;27;20050;-81
2022/03/31 08:17:04;;;;;;;9.07;5.45;;;3.10;99.90;;;;;;5111751;27;20039;-81
2022/03/31 08:19:32;;;;;;;11.00;5.82;;;3.10;99.90;;;;;;5130764;27;20406;-81
2022/03/31 08:22:02;;;;;;;11.43;5.10;;;3.10;99.90;;;;;;5129352;27;20086;-81
2022/03/31 08:24:30;;;;;;;8.05;4.95;;;3.10;99.90;;;;;;5130629;27;20047;-82
2022/03/31 08:26:58;;;;;;;7.90;4.78;;;2.40;99.90;;;;;;5111090;27;20035;-82
2022/03/31 08:29:25;;;;;;;6.57;4.75;;;3.10;99.90;;;;;;5111508;27;20088;-82
2022/03/31 08:31:55;;;;;;;8.38;5.53;;;3.10;99.90;;;;;;5112180;27;20363;-81
2022/03/31 08:34:24;;;;;;;16.20;6.40;;;3.00;99.90;;;;;;5129778;27;20101;-82
2022/03/31 08:36:50;;;;;;;18.90;6.03;;;3.00;99.90;;;;;;5111929;27;20054;-82
2022/03/31 08:39:15;;;;;;;22.30;6.32;;;3.00;99.90;;;;;;5129499;27;20039;-81
2022/03/31 08:41:43;;;;;;;15.50;7.32;;;3.00;99.90;;;;;;5111489;27;20134;-81
2022/03/31 08:44:12;;;;;;;9.38;6.75;;;3.10;99.90;;;;;;5110787;27;20047;-82
2022/03/31 08:46:39;;;;;;;10.95;6.95;;;3.10;99.90;;;;;;5107731;28;20087;-82
2022/03/31 08:49:06;;;;;;;11.40;7.00;;;3.10;99.90;;;;;;5107841;28;20062;-81
2022/03/31 08:51:32;;;;;;;8.75;6.53;;;3.10;99.90;;;;;;5107228;28;20075;-82
2022/03/31 08:53:58;;;;;;;10.85;7.07;;;3.10;99.90;;;;;;5107991;28;20869;-82
2022/03/31 08:56:23;;;;;;;9.90;5.68;;;3.10;99.90;;;;;;5089843;28;20039;-81
2022/03/31 08:58:49;;;;;;;7.72;5.45;;;3.10;99.90;;;;;;5109308;28;20048;-82
2022/03/31 09:01:16;;;;;;;7.00;5.32;;;3.00;99.90;;;;;;5090668;28;20040;-82
2022/03/31 09:03:42;;;;;;;6.95;5.00;;;3.00;99.90;;;;;;5108638;28;20039;-82
2022/03/31 09:06:19;;;;;;;6.65;4.72;;;2.90;99.90;;;;;;5090481;28;20067;-82
2022/03/31 09:09:02;;;;;;;7.18;4.47;;;2.90;99.90;;;;;;5108406;28;20051;-82
2022/03/31 09:11:33;;;;;;;3.95;2.78;;;2.80;99.90;;;;;;5107675;28;20530;-83
2022/03/31 09:14:04;;;;;;;6.90;4.20;;;2.80;99.90;;;;;;5090235;28;20128;-82
2022/03/31 09:16:36;;;;;;;5.55;3.72;;;2.80;99.90;;;;;;5108350;28;20537;-82
2022/03/31 09:19:04;;;;;;;4.88;3.80;;;2.70;99.90;;;;;;5108925;28;20044;-83
2022/03/31 09:21:31;;;;;;;4.82;3.95;;;2.60;99.90;;;;;;5106819;28;20055;-82
2022/03/31 09:23:58;;;;;;;5.07;3.72;;;2.60;99.90;;;;;;5090452;28;20051;-82
2022/03/31 09:26:27;;;;;;;2.80;2.53;;;2.50;99.90;;;;;;5108018;28;20391;-82
2022/03/31 09:28:55;;;;;;;12.27;3.42;;;2.60;99.90;;;;;;5106957;28;20044;-81
2022/03/31 09:31:25;;;;;;;3.63;2.67;;;2.30;99.90;;;;;;5106866;28;20043;-82
2022/03/31 09:33:56;;;;;;;6.68;3.08;;;2.20;99.90;;;;;;5106644;28;20087;-82
2022/03/31 09:36:23;;;;;;;7.18;3.10;;;2.20;99.90;;;;;;5108662;28;20039;-82
2022/03/31 09:39:00;;;;;;;3.95;2.72;;;2.10;99.90;;;;;;5088977;28;20131;-82
2022/03/31 09:41:33;;;;;;;7.40;2.83;;;2.00;99.90;;;;;;5089886;28;20051;-82
2022/03/31 09:44:23;;;;;;;3.90;3.08;;;2.00;99.90;;;;;;5106119;28;20054;-81
2022/03/31 09:46:51;;;;;;;5.15;3.22;;;2.00;99.90;;;;;;5105937;28;20113;-82
2022/03/31 09:49:22;;;;;;;4.40;3.60;;;1.90;99.90;;;;;;5090024;28;20070;-82
2022/03/31 09:51:50;;;;;;;8.18;4.38;;;1.90;99.90;;;;;;5089108;28;20035;-81
2022/03/31 09:54:17;;;;;;;5.20;3.80;;;1.90;99.90;;;;;;5107102;28;20045;-81
2022/03/31 09:56:43;;;;;;;6.90;3.97;;;1.90;99.90;;;;;;5105606;28;20047;-82
2022/03/31 09:59:11;;;;;;;6.18;4.10;;;1.90;99.90;;;;;;5107828;28;20035;-82
2022/03/31 10:01:38;;;;;;;9.68;3.60;;;1.90;99.90;;;;;;5108049;28;20043;-82
2022/03/31 10:04:09;;;;;;;6.30;3.78;;;1.90;99.90;;;;;;5106087;28;20039;-82
2022/03/31 10:06:37;;;;;;;9.40;3.70;;;2.00;99.90;;;;;;5108201;28;20470;-82
2022/03/31 10:09:05;;;;;;;6.10;3.72;;;1.80;99.90;;;;;;5106819;28;20552;-82
2022/03/31 10:11:39;;;;;;;8.07;4.22;;;1.80;99.90;;;;;;5107858;28;20043;-82
2022/03/31 10:14:07;;;;;;;5.93;3.67;;;1.80;99.90;;;;;;5089753;28;20039;-81
2022/03/31 10:16:47;;;;;;;5.10;3.65;;;1.80;99.90;;;;;;5107537;28;20044;-82
2022/03/31 10:19:35;;;;;;;6.78;3.45;;;1.80;99.90;;;;;;5105606;28;20058;-81
2022/03/31 10:25:10;;;;;;;4.50;3.10;;;1.70;99.90;;;;;;5107051;28;20054;-81
2022/03/31 10:27:39;;;;;;;5.10;3.17;;;1.70;99.90;;;;;;5090009;28;20047;-81
2022/03/31 10:30:18;;;;;;;4.70;3.40;;;1.70;99.90;;;;;;5105355;28;20046;-80
2022/03/31 10:32:57;;;;;;;7.60;3.05;;;1.70;99.90;;;;;;5107945;28;20394;-80
2022/03/31 10:35:27;;;;;;;8.52;2.95;;;1.70;99.90;;;;;;5088700;28;20052;-80
2022/03/31 10:37:53;;;;;;;3.33;2.50;;;1.90;99.90;;;;;;5072698;28;20254;-79
2022/03/31 10:40:42;;;;;;;4.35;3.22;;;2.80;99.90;;;;;;5089413;28;20572;-79
2022/03/31 10:43:28;;;;;;;4.80;2.90;;;1.70;99.90;;;;;;5106790;28;20376;-80
2022/03/31 10:45:54;;;;;;;4.05;2.47;;;1.60;99.90;;;;;;5106522;28;20079;-80
2022/03/31 10:48:23;;;;;;;4.95;3.13;;;1.70;99.90;;;;;;5126207;28;20487;-79
2022/03/31 10:51:04;;;;;;;2.85;2.17;;;1.60;99.90;;;;;;5109444;28;20514;-80
2022/03/31 10:53:33;;;;;;;3.80;2.88;;;1.50;99.90;;;;;;5109763;28;20043;-79
2022/03/31 10:56:00;;;;;;;3.70;3.13;;;1.60;99.90;;;;;;5126909;28;20047;-80
2022/03/31 10:58:28;;;;;;;3.53;2.60;;;1.60;99.90;;;;;;5109042;28;20126;-80
2022/03/31 11:00:55;;;;;;;3.75;2.72;;;1.60;99.90;;;;;;5127108;28;20083;-80
2022/03/31 11:03:22;;;;;;;3.58;2.95;;;1.70;99.90;;;;;;5108973;28;20082;-78
2022/03/31 11:05:49;;;;;;;4.50;3.20;;;1.70;99.90;;;;;;5128034;28;20103;-78
2022/03/31 11:08:18;;;;;;;4.38;3.17;;;1.70;99.90;;;;;;5127266;27;20051;-78
2022/03/31 11:10:47;;;;;;;4.70;2.70;;;1.70;99.90;;;;;;5127916;28;20036;-78
2022/03/31 11:13:15;;;;;;;3.88;2.78;;;1.80;99.90;;;;;;5091069;28;20039;-79
2022/03/31 11:15:42;;;;;;;5.22;3.28;;;2.00;99.90;;;;;;5092095;28;20607;-80
2022/03/31 11:18:08;;;;;;;3.65;2.63;;;1.70;99.90;;;;;;5091894;28;20039;-80
2022/03/31 11:20:34;;;;;;;4.22;3.10;;;1.80;99.90;;;;;;5058830;28;20039;-79
2022/03/31 11:23:08;;;;;;;7.35;2.72;;;1.80;99.90;;;;;;5108759;28;20070;-80
2022/03/31 11:25:35;;;;;;;4.32;2.28;;;1.80;99.90;;;;;;5108813;28;20045;-78
2022/03/31 11:28:12;;;;;;;3.80;2.65;;;1.80;99.90;;;;;;5075518;28;20044;-79
2022/03/31 11:30:40;;;;;;;4.60;2.83;;;1.70;99.90;;;;;;5111104;27;20057;-78
2022/03/31 11:33:09;;;;;;;3.78;2.67;;;2.80;99.90;;;;;;5112859;27;20047;-78
2022/03/31 11:35:35;;;;;;;2.50;2.22;;;1.70;99.90;;;;;;5112553;27;20083;-78
2022/03/31 11:38:03;;;;;;;4.43;2.55;;;2.50;99.90;;;;;;5111986;27;20046;-79
2022/03/31 11:40:31;;;;;;;5.78;2.80;;;1.60;99.90;;;;;;5095817;27;20125;-78
2022/03/31 11:42:59;;;;;;;5.28;3.38;;;1.60;99.90;;;;;;5094754;27;20043;-78
2022/03/31 11:45:34;;;;;;;4.07;3.05;;;3.00;99.90;;;;;;5112738;27;20128;-80
2022/03/31 11:47:59;;;;;;;4.03;2.90;;;1.50;99.90;;;;;;5091094;28;20060;-80
2022/03/31 11:50:26;;;;;;;3.70;2.72;;;1.50;99.90;;;;;;5108860;28;20048;-80
2022/03/31 11:52:53;;;;;;;4.47;2.97;;;1.50;99.90;;;;;;5092322;28;20043;-79
2022/03/31 11:55:23;;;;;;;3.50;2.78;;;1.40;99.90;;;;;;5108657;28;20047;-80
2022/03/31 11:58:00;;;;;;;2.78;2.33;;;1.40;99.90;;;;;;5109050;28;20083;-79
2022/03/31 12:00:29;;;;;;;3.40;2.55;;;1.40;99.90;;;;;;5074366;28;20097;-80
2022/03/31 12:02:59;;;;;;;3.63;2.20;;;1.30;99.90;;;;;;5108651;28;20510;-79
2022/03/31 12:05:26;;;;;;;3.72;2.90;;;1.30;99.90;;;;;;5092054;28;20369;-79
2022/03/31 12:07:52;;;;;;;3.88;2.42;;;1.30;99.90;;;;;;5058477;28;20066;-79
2022/03/31 12:10:18;;;;;;;4.25;2.67;;;2.50;99.90;;;;;;5092236;28;20419;-79
2022/03/31 12:12:58;;;;;;;3.88;2.90;;;1.30;99.90;;;;;;5109191;28;20453;-79
2022/03/31 12:16:05;;;;;;;5.28;2.67;;;2.10;99.90;;;;;;5110319;28;20050;-79
2022/03/31 12:18:33;;;;;;;4.68;3.45;;;1.30;99.90;;;;;;5109866;28;20407;-79
2022/03/31 12:21:00;;;;;;;4.82;2.88;;;1.40;99.90;;;;;;5109438;28;20047;-78
2022/03/31 12:23:26;;;;;;;5.40;3.40;;;1.40;99.90;;;;;;5110009;28;20122;-79
2022/03/31 12:25:53;;;;;;;5.30;3.20;;;1.40;99.90;;;;;;5108787;28;20545;-78
2022/03/31 12:28:23;;;;;;;5.78;4.03;;;1.40;99.90;;;;;;5110057;28;20481;-79
2022/03/31 12:30:56;;;;;;;9.55;3.65;;;1.40;99.90;;;;;;5107911;28;20075;-78
2022/03/31 12:33:30;;;;;;;5.63;3.80;;;1.40;99.90;;;;;;5109650;28;20074;-78
2022/03/31 12:36:03;;;;;;;6.80;3.95;;;1.40;99.90;;;;;;5109815;28;20114;-78
2022/03/31 12:38:46;;;;;;;;;;;1.30;99.90;;;;;;5109818;28;20043;-78
2022/03/31 12:41:25;;;;;;;7.80;4.35;;;1.40;99.90;;;;;;5107267;28;19930;-78
2022/03/31 12:44:12;;;;;;;6.18;4.55;;;1.40;99.90;;;;;;5107839;28;20047;-78
2022/03/31 12:46:45;;;;;;;4.88;4.35;;;1.40;99.90;;;;;;5094364;27;20111;-79
2022/03/31 12:49:13;;;;;;;5.28;4.07;;;1.30;99.90;;;;;;5129846;27;20486;-80
2022/03/31 12:51:44;;;;;;;6.63;4.57;;;1.30;99.90;;;;;;5128779;27;20064;-80
2022/03/31 12:54:46;;;;;;;6.70;4.68;;;1.40;99.90;;;;;;5111216;27;20104;-78
2022/03/31 12:57:17;;;;;;;4.88;3.85;;;1.40;99.90;;;;;;5106775;27;20054;-78
2022/03/31 12:59:56;;;;;;;7.75;4.97;;;1.40;99.90;;;;;;5093289;27;20047;-80
2022/03/31 13:02:21;;;;;;;6.95;4.60;;;1.40;99.90;;;;;;5095870;27;20482;-78
2022/03/31 13:04:47;;;;;;;5.78;4.53;;;1.40;99.90;;;;;;5110039;27;20061;-78
2022/03/31 13:07:20;;;;;;;6.38;4.80;;;1.40;99.90;;;;;;5110557;27;20514;-77